sensor_id;sensor_type;location;lat;lon;timestamp;temperature;humidity
24402;DHT22;12539;48.808;11.292;2023-05-07T00:01:27;13.50;95.30
24402;DHT22;12539;48.808;11.292;2023-05-07T00:03:53;13.50;95.30
24402;DHT22;12539;48.808;11.292;2023-05-07T00:06:18;13.50;95.30
24402;DHT22;12539;48.808;11.292;2023-05-07T00:08:44;13.50;95.30
24402;DHT22;12539;48.808;11.292;2023-05-07T00:11:10;13.50;95.30
24402;DHT22;12539;48.808;11.292;2023-05-07T00:13:36;13.50;95.40
24402;DHT22;12539;48.808;11.292;2023-05-07T00:16:05;13.50;95.40
24402;DHT22;12539;48.808;11.292;2023-05-07T00:18:30;13.40;95.40
24402;DHT22;12539;48.808;11.292;2023-05-07T00:20:56;13.40;95.40
24402;DHT22;12539;48.808;11.292;2023-05-07T00:23:22;13.30;95.50
24402;DHT22;12539;48.808;11.292;2023-05-07T00:25:48;13.30;95.70
24402;DHT22;12539;48.808;11.292;2023-05-07T00:28:14;13.30;95.80
24402;DHT22;12539;48.808;11.292;2023-05-07T00:30:40;13.30;95.80
24402;DHT22;12539;48.808;11.292;2023-05-07T00:33:05;13.40;95.80
24402;DHT22;12539;48.808;11.292;2023-05-07T00:35:31;13.40;95.80
24402;DHT22;12539;48.808;11.292;2023-05-07T00:37:58;13.40;95.70
24402;DHT22;12539;48.808;11.292;2023-05-07T00:40:23;13.40;95.90
24402;DHT22;12539;48.808;11.292;2023-05-07T00:42:49;13.40;95.60
24402;DHT22;12539;48.808;11.292;2023-05-07T00:45:15;13.40;95.70
24402;DHT22;12539;48.808;11.292;2023-05-07T00:47:42;13.40;95.70
24402;DHT22;12539;48.808;11.292;2023-05-07T00:50:08;13.40;95.70
24402;DHT22;12539;48.808;11.292;2023-05-07T00:52:37;13.50;95.60
24402;DHT22;12539;48.808;11.292;2023-05-07T00:55:05;13.50;95.60
24402;DHT22;12539;48.808;11.292;2023-05-07T00:57:40;13.50;95.60
24402;DHT22;12539;48.808;11.292;2023-05-07T01:00:07;13.50;95.50
24402;DHT22;12539;48.808;11.292;2023-05-07T01:02:37;13.40;95.50
24402;DHT22;12539;48.808;11.292;2023-05-07T01:05:05;13.40;95.60
24402;DHT22;12539;48.808;11.292;2023-05-07T01:07:33;13.40;95.50
24402;DHT22;12539;48.808;11.292;2023-05-07T01:10:00;13.40;95.50
24402;DHT22;12539;48.808;11.292;2023-05-07T01:12:27;13.40;95.50
24402;DHT22;12539;48.808;11.292;2023-05-07T01:14:53;13.30;95.50
24402;DHT22;12539;48.808;11.292;2023-05-07T01:17:19;13.30;95.40
24402;DHT22;12539;48.808;11.292;2023-05-07T01:19:45;13.30;95.50
24402;DHT22;12539;48.808;11.292;2023-05-07T01:22:11;13.20;95.50
24402;DHT22;12539;48.808;11.292;2023-05-07T01:24:40;13.20;95.60
24402;DHT22;12539;48.808;11.292;2023-05-07T01:27:06;13.20;95.60
24402;DHT22;12539;48.808;11.292;2023-05-07T01:29:32;13.20;95.70
24402;DHT22;12539;48.808;11.292;2023-05-07T01:32:00;13.20;95.80
24402;DHT22;12539;48.808;11.292;2023-05-07T01:34:28;13.10;95.80
24402;DHT22;12539;48.808;11.292;2023-05-07T01:36:56;13.10;95.80
24402;DHT22;12539;48.808;11.292;2023-05-07T01:39:25;13.10;95.90
24402;DHT22;12539;48.808;11.292;2023-05-07T01:41:56;13.10;95.90
24402;DHT22;12539;48.808;11.292;2023-05-07T01:44:22;13.10;96.00
24402;DHT22;12539;48.808;11.292;2023-05-07T01:46:48;13.10;96.10
24402;DHT22;12539;48.808;11.292;2023-05-07T01:49:15;13.10;96.10
24402;DHT22;12539;48.808;11.292;2023-05-07T01:51:42;13.00;96.20
24402;DHT22;12539;48.808;11.292;2023-05-07T01:54:08;13.00;96.30
24402;DHT22;12539;48.808;11.292;2023-05-07T01:56:34;13.10;96.40
24402;DHT22;12539;48.808;11.292;2023-05-07T01:59:00;13.10;96.40
24402;DHT22;12539;48.808;11.292;2023-05-07T02:01:26;13.10;96.50
24402;DHT22;12539;48.808;11.292;2023-05-07T02:03:51;13.10;96.50
24402;DHT22;12539;48.808;11.292;2023-05-07T02:06:17;13.10;96.50
24402;DHT22;12539;48.808;11.292;2023-05-07T02:08:43;13.10;96.60
24402;DHT22;12539;48.808;11.292;2023-05-07T02:11:09;13.10;96.60
24402;DHT22;12539;48.808;11.292;2023-05-07T02:13:35;13.00;96.70
24402;DHT22;12539;48.808;11.292;2023-05-07T02:16:01;13.10;96.80
24402;DHT22;12539;48.808;11.292;2023-05-07T02:18:27;13.10;96.80
24402;DHT22;12539;48.808;11.292;2023-05-07T02:20:53;13.10;96.90
24402;DHT22;12539;48.808;11.292;2023-05-07T02:23:19;13.10;96.90
24402;DHT22;12539;48.808;11.292;2023-05-07T02:25:44;13.10;96.90
24402;DHT22;12539;48.808;11.292;2023-05-07T02:28:11;13.10;96.80
24402;DHT22;12539;48.808;11.292;2023-05-07T02:30:38;13.10;96.90
24402;DHT22;12539;48.808;11.292;2023-05-07T02:33:04;13.10;96.90
24402;DHT22;12539;48.808;11.292;2023-05-07T02:35:30;13.00;97.10
24402;DHT22;12539;48.808;11.292;2023-05-07T02:37:56;13.00;96.80
24402;DHT22;12539;48.808;11.292;2023-05-07T02:40:22;13.00;96.80
24402;DHT22;12539;48.808;11.292;2023-05-07T02:42:47;13.00;96.90
24402;DHT22;12539;48.808;11.292;2023-05-07T02:45:13;13.00;96.90
24402;DHT22;12539;48.808;11.292;2023-05-07T02:47:40;12.90;96.80
24402;DHT22;12539;48.808;11.292;2023-05-07T02:50:06;12.90;96.80
24402;DHT22;12539;48.808;11.292;2023-05-07T02:52:32;12.90;96.80
24402;DHT22;12539;48.808;11.292;2023-05-07T02:54:57;12.90;96.80
24402;DHT22;12539;48.808;11.292;2023-05-07T02:57:23;12.90;96.90
24402;DHT22;12539;48.808;11.292;2023-05-07T02:59:49;12.90;97.00
24402;DHT22;12539;48.808;11.292;2023-05-07T03:02:14;12.90;97.10
24402;DHT22;12539;48.808;11.292;2023-05-07T03:04:40;12.90;97.10
24402;DHT22;12539;48.808;11.292;2023-05-07T03:07:06;12.80;97.10
24402;DHT22;12539;48.808;11.292;2023-05-07T03:09:32;12.80;97.10
24402;DHT22;12539;48.808;11.292;2023-05-07T03:11:57;12.80;97.00
24402;DHT22;12539;48.808;11.292;2023-05-07T03:14:23;12.80;97.10
24402;DHT22;12539;48.808;11.292;2023-05-07T03:16:49;12.70;97.10
24402;DHT22;12539;48.808;11.292;2023-05-07T03:19:15;12.70;97.20
24402;DHT22;12539;48.808;11.292;2023-05-07T03:21:41;12.70;97.30
24402;DHT22;12539;48.808;11.292;2023-05-07T03:24:07;12.60;97.50
24402;DHT22;12539;48.808;11.292;2023-05-07T03:26:32;12.60;97.60
24402;DHT22;12539;48.808;11.292;2023-05-07T03:28:58;12.60;97.80
24402;DHT22;12539;48.808;11.292;2023-05-07T03:31:24;12.50;97.90
24402;DHT22;12539;48.808;11.292;2023-05-07T03:33:54;12.50;97.90
24402;DHT22;12539;48.808;11.292;2023-05-07T03:36:20;12.50;98.00
24402;DHT22;12539;48.808;11.292;2023-05-07T03:38:46;12.50;98.10
24402;DHT22;12539;48.808;11.292;2023-05-07T03:41:15;12.50;98.10
24402;DHT22;12539;48.808;11.292;2023-05-07T03:43:40;12.50;98.10
24402;DHT22;12539;48.808;11.292;2023-05-07T03:46:06;12.50;98.20
24402;DHT22;12539;48.808;11.292;2023-05-07T03:48:32;12.50;98.30
24402;DHT22;12539;48.808;11.292;2023-05-07T03:50:58;12.40;98.40
24402;DHT22;12539;48.808;11.292;2023-05-07T03:53:24;12.50;98.70
24402;DHT22;12539;48.808;11.292;2023-05-07T03:55:50;12.40;98.50
24402;DHT22;12539;48.808;11.292;2023-05-07T03:58:16;12.50;98.50
24402;DHT22;12539;48.808;11.292;2023-05-07T04:00:42;12.40;98.70
24402;DHT22;12539;48.808;11.292;2023-05-07T04:03:08;12.50;98.80
24402;DHT22;12539;48.808;11.292;2023-05-07T04:05:34;12.40;98.90
24402;DHT22;12539;48.808;11.292;2023-05-07T04:08:00;12.50;99.00
24402;DHT22;12539;48.808;11.292;2023-05-07T04:10:26;12.50;99.10
24402;DHT22;12539;48.808;11.292;2023-05-07T04:12:53;12.50;99.20
24402;DHT22;12539;48.808;11.292;2023-05-07T04:15:19;12.50;99.30
24402;DHT22;12539;48.808;11.292;2023-05-07T04:17:45;12.50;99.30
24402;DHT22;12539;48.808;11.292;2023-05-07T04:20:16;12.50;99.40
24402;DHT22;12539;48.808;11.292;2023-05-07T04:22:42;12.50;99.40
24402;DHT22;12539;48.808;11.292;2023-05-07T04:25:08;12.60;99.50
24402;DHT22;12539;48.808;11.292;2023-05-07T04:27:37;12.60;99.40
24402;DHT22;12539;48.808;11.292;2023-05-07T04:30:03;12.60;99.40
24402;DHT22;12539;48.808;11.292;2023-05-07T04:32:30;12.70;99.40
24402;DHT22;12539;48.808;11.292;2023-05-07T04:34:56;12.70;99.30
24402;DHT22;12539;48.808;11.292;2023-05-07T04:37:22;12.80;99.30
24402;DHT22;12539;48.808;11.292;2023-05-07T04:39:48;12.80;99.20
24402;DHT22;12539;48.808;11.292;2023-05-07T04:42:17;12.90;99.30
24402;DHT22;12539;48.808;11.292;2023-05-07T04:44:46;13.00;99.60
24402;DHT22;12539;48.808;11.292;2023-05-07T04:47:12;13.00;99.10
24402;DHT22;12539;48.808;11.292;2023-05-07T04:49:40;13.10;98.90
24402;DHT22;12539;48.808;11.292;2023-05-07T04:52:06;13.20;98.70
24402;DHT22;12539;48.808;11.292;2023-05-07T04:54:32;13.30;98.60
24402;DHT22;12539;48.808;11.292;2023-05-07T04:56:57;13.40;98.40
24402;DHT22;12539;48.808;11.292;2023-05-07T04:59:23;13.50;98.30
24402;DHT22;12539;48.808;11.292;2023-05-07T05:01:49;13.60;98.30
24402;DHT22;12539;48.808;11.292;2023-05-07T05:04:14;13.70;98.20
24402;DHT22;12539;48.808;11.292;2023-05-07T05:06:40;13.80;98.00
24402;DHT22;12539;48.808;11.292;2023-05-07T05:09:06;13.90;97.80
24402;DHT22;12539;48.808;11.292;2023-05-07T05:11:32;14.00;97.60
24402;DHT22;12539;48.808;11.292;2023-05-07T05:13:59;14.10;97.60
24402;DHT22;12539;48.808;11.292;2023-05-07T05:16:26;14.20;97.50
24402;DHT22;12539;48.808;11.292;2023-05-07T05:18:51;14.30;97.20
24402;DHT22;12539;48.808;11.292;2023-05-07T05:21:17;14.40;97.00
24402;DHT22;12539;48.808;11.292;2023-05-07T05:23:43;14.40;96.60
24402;DHT22;12539;48.808;11.292;2023-05-07T05:26:09;14.40;96.40
24402;DHT22;12539;48.808;11.292;2023-05-07T05:28:34;14.50;96.20
24402;DHT22;12539;48.808;11.292;2023-05-07T05:31:00;14.50;96.10
24402;DHT22;12539;48.808;11.292;2023-05-07T05:33:26;14.40;96.10
24402;DHT22;12539;48.808;11.292;2023-05-07T05:35:53;14.40;96.20
24402;DHT22;12539;48.808;11.292;2023-05-07T05:38:19;14.50;96.30
24402;DHT22;12539;48.808;11.292;2023-05-07T05:40:44;14.50;96.30
24402;DHT22;12539;48.808;11.292;2023-05-07T05:43:10;14.50;96.40
24402;DHT22;12539;48.808;11.292;2023-05-07T05:45:36;14.60;96.50
24402;DHT22;12539;48.808;11.292;2023-05-07T05:48:01;14.60;96.50
24402;DHT22;12539;48.808;11.292;2023-05-07T05:50:27;14.70;96.50
24402;DHT22;12539;48.808;11.292;2023-05-07T05:52:52;14.90;96.50
24402;DHT22;12539;48.808;11.292;2023-05-07T05:55:18;14.90;96.20
24402;DHT22;12539;48.808;11.292;2023-05-07T05:57:45;15.10;96.20
24402;DHT22;12539;48.808;11.292;2023-05-07T06:00:11;15.20;96.10
24402;DHT22;12539;48.808;11.292;2023-05-07T06:02:37;15.40;96.10
24402;DHT22;12539;48.808;11.292;2023-05-07T06:05:03;15.70;96.30
24402;DHT22;12539;48.808;11.292;2023-05-07T06:07:29;16.10;96.20
24402;DHT22;12539;48.808;11.292;2023-05-07T06:09:54;16.80;96.00
24402;DHT22;12539;48.808;11.292;2023-05-07T06:12:21;18.10;94.70
24402;DHT22;12539;48.808;11.292;2023-05-07T06:14:46;20.00;91.70
24402;DHT22;12539;48.808;11.292;2023-05-07T06:17:12;22.00;84.80
24402;DHT22;12539;48.808;11.292;2023-05-07T06:19:38;23.80;76.50
24402;DHT22;12539;48.808;11.292;2023-05-07T06:22:04;25.30;69.90
24402;DHT22;12539;48.808;11.292;2023-05-07T06:24:29;26.60;64.60
24402;DHT22;12539;48.808;11.292;2023-05-07T06:26:55;27.60;59.90
24402;DHT22;12539;48.808;11.292;2023-05-07T06:29:21;28.20;57.40
24402;DHT22;12539;48.808;11.292;2023-05-07T06:31:47;28.70;55.30
24402;DHT22;12539;48.808;11.292;2023-05-07T06:34:13;28.30;54.00
24402;DHT22;12539;48.808;11.292;2023-05-07T06:36:41;28.60;53.30
24402;DHT22;12539;48.808;11.292;2023-05-07T06:39:07;29.30;50.70
24402;DHT22;12539;48.808;11.292;2023-05-07T06:41:32;29.80;48.70
24402;DHT22;12539;48.808;11.292;2023-05-07T06:43:58;30.00;47.30
24402;DHT22;12539;48.808;11.292;2023-05-07T06:46:23;29.70;47.40
24402;DHT22;12539;48.808;11.292;2023-05-07T06:48:49;28.60;47.90
24402;DHT22;12539;48.808;11.292;2023-05-07T06:51:15;27.20;50.20
24402;DHT22;12539;48.808;11.292;2023-05-07T06:53:40;25.90;52.70
24402;DHT22;12539;48.808;11.292;2023-05-07T06:56:06;24.80;53.90
24402;DHT22;12539;48.808;11.292;2023-05-07T06:58:32;24.00;55.20
24402;DHT22;12539;48.808;11.292;2023-05-07T07:00:58;23.90;55.80
24402;DHT22;12539;48.808;11.292;2023-05-07T07:03:24;23.80;55.70
24402;DHT22;12539;48.808;11.292;2023-05-07T07:05:53;23.40;56.80
24402;DHT22;12539;48.808;11.292;2023-05-07T07:08:19;22.80;58.50
24402;DHT22;12539;48.808;11.292;2023-05-07T07:10:47;22.30;60.10
24402;DHT22;12539;48.808;11.292;2023-05-07T07:13:12;21.80;61.80
24402;DHT22;12539;48.808;11.292;2023-05-07T07:15:38;21.30;63.40
24402;DHT22;12539;48.808;11.292;2023-05-07T07:18:07;21.00;65.00
24402;DHT22;12539;48.808;11.292;2023-05-07T07:20:33;20.80;66.20
24402;DHT22;12539;48.808;11.292;2023-05-07T07:22:58;20.70;67.20
24402;DHT22;12539;48.808;11.292;2023-05-07T07:25:25;20.50;68.30
24402;DHT22;12539;48.808;11.292;2023-05-07T07:27:50;20.40;68.80
24402;DHT22;12539;48.808;11.292;2023-05-07T07:30:16;20.40;69.10
24402;DHT22;12539;48.808;11.292;2023-05-07T07:32:41;20.50;69.10
24402;DHT22;12539;48.808;11.292;2023-05-07T07:35:08;20.50;69.10
24402;DHT22;12539;48.808;11.292;2023-05-07T07:37:34;20.50;68.90
24402;DHT22;12539;48.808;11.292;2023-05-07T07:39:59;20.50;68.90
24402;DHT22;12539;48.808;11.292;2023-05-07T07:42:25;20.50;69.10
24402;DHT22;12539;48.808;11.292;2023-05-07T07:44:51;20.50;69.10
24402;DHT22;12539;48.808;11.292;2023-05-07T07:47:17;20.50;69.20
24402;DHT22;12539;48.808;11.292;2023-05-07T07:49:42;20.40;69.50
24402;DHT22;12539;48.808;11.292;2023-05-07T07:52:08;20.40;70.00
24402;DHT22;12539;48.808;11.292;2023-05-07T07:54:35;20.50;70.10
24402;DHT22;12539;48.808;11.292;2023-05-07T07:57:01;20.40;70.20
24402;DHT22;12539;48.808;11.292;2023-05-07T07:59:26;20.40;70.30
24402;DHT22;12539;48.808;11.292;2023-05-07T08:01:52;20.30;70.80
24402;DHT22;12539;48.808;11.292;2023-05-07T08:04:21;20.20;71.40
24402;DHT22;12539;48.808;11.292;2023-05-07T08:06:46;20.20;71.80
24402;DHT22;12539;48.808;11.292;2023-05-07T08:09:12;20.20;71.70
24402;DHT22;12539;48.808;11.292;2023-05-07T08:11:38;20.10;71.90
24402;DHT22;12539;48.808;11.292;2023-05-07T08:14:04;20.20;71.80
24402;DHT22;12539;48.808;11.292;2023-05-07T08:16:30;20.20;71.80
24402;DHT22;12539;48.808;11.292;2023-05-07T08:18:56;20.20;71.90
24402;DHT22;12539;48.808;11.292;2023-05-07T08:21:22;20.10;71.80
24402;DHT22;12539;48.808;11.292;2023-05-07T08:23:48;20.20;72.10
24402;DHT22;12539;48.808;11.292;2023-05-07T08:26:14;20.20;72.40
24402;DHT22;12539;48.808;11.292;2023-05-07T08:28:39;20.20;72.50
24402;DHT22;12539;48.808;11.292;2023-05-07T08:31:05;20.20;72.90
24402;DHT22;12539;48.808;11.292;2023-05-07T08:33:31;20.20;72.90
24402;DHT22;12539;48.808;11.292;2023-05-07T08:35:57;20.30;73.10
24402;DHT22;12539;48.808;11.292;2023-05-07T08:38:25;20.20;73.00
24402;DHT22;12539;48.808;11.292;2023-05-07T08:40:51;20.20;73.00
24402;DHT22;12539;48.808;11.292;2023-05-07T08:43:17;20.20;72.90
24402;DHT22;12539;48.808;11.292;2023-05-07T08:45:45;20.20;72.80
24402;DHT22;12539;48.808;11.292;2023-05-07T08:48:15;20.20;73.00
24402;DHT22;12539;48.808;11.292;2023-05-07T08:50:42;20.20;73.30
24402;DHT22;12539;48.808;11.292;2023-05-07T08:53:08;20.20;73.10
24402;DHT22;12539;48.808;11.292;2023-05-07T08:55:33;20.20;73.20
24402;DHT22;12539;48.808;11.292;2023-05-07T08:58:00;20.30;73.50
24402;DHT22;12539;48.808;11.292;2023-05-07T09:00:26;20.30;73.30
24402;DHT22;12539;48.808;11.292;2023-05-07T09:02:53;20.40;72.90
24402;DHT22;12539;48.808;11.292;2023-05-07T09:05:19;20.40;72.80
24402;DHT22;12539;48.808;11.292;2023-05-07T09:07:45;20.50;72.80
24402;DHT22;12539;48.808;11.292;2023-05-07T09:10:12;20.40;72.80
24402;DHT22;12539;48.808;11.292;2023-05-07T09:12:38;20.40;71.90
24402;DHT22;12539;48.808;11.292;2023-05-07T09:15:05;20.40;72.40
24402;DHT22;12539;48.808;11.292;2023-05-07T09:17:31;20.50;71.80
24402;DHT22;12539;48.808;11.292;2023-05-07T09:20:01;20.50;71.90
24402;DHT22;12539;48.808;11.292;2023-05-07T09:22:27;20.50;71.90
24402;DHT22;12539;48.808;11.292;2023-05-07T09:24:52;20.60;72.40
24402;DHT22;12539;48.808;11.292;2023-05-07T09:27:18;20.60;72.70
24402;DHT22;12539;48.808;11.292;2023-05-07T09:29:45;20.60;72.60
24402;DHT22;12539;48.808;11.292;2023-05-07T09:32:10;20.60;71.80
24402;DHT22;12539;48.808;11.292;2023-05-07T09:34:36;20.70;71.70
24402;DHT22;12539;48.808;11.292;2023-05-07T09:37:03;20.80;71.90
24402;DHT22;12539;48.808;11.292;2023-05-07T09:39:42;20.80;71.70
24402;DHT22;12539;48.808;11.292;2023-05-07T09:42:08;20.90;70.30
24402;DHT22;12539;48.808;11.292;2023-05-07T09:44:35;21.00;69.70
24402;DHT22;12539;48.808;11.292;2023-05-07T09:47:03;21.00;70.30
24402;DHT22;12539;48.808;11.292;2023-05-07T09:49:30;21.10;70.20
24402;DHT22;12539;48.808;11.292;2023-05-07T09:52:00;21.20;69.80
24402;DHT22;12539;48.808;11.292;2023-05-07T09:54:26;21.30;69.00
24402;DHT22;12539;48.808;11.292;2023-05-07T09:56:54;21.40;69.20
24402;DHT22;12539;48.808;11.292;2023-05-07T09:59:21;21.40;69.00
24402;DHT22;12539;48.808;11.292;2023-05-07T10:01:48;21.50;69.10
24402;DHT22;12539;48.808;11.292;2023-05-07T10:04:14;21.50;69.10
24402;DHT22;12539;48.808;11.292;2023-05-07T10:06:41;21.60;69.20
24402;DHT22;12539;48.808;11.292;2023-05-07T10:09:08;21.60;68.70
24402;DHT22;12539;48.808;11.292;2023-05-07T10:11:35;21.60;68.70
24402;DHT22;12539;48.808;11.292;2023-05-07T10:14:02;21.50;67.30
24402;DHT22;12539;48.808;11.292;2023-05-07T10:16:50;21.50;66.20
24402;DHT22;12539;48.808;11.292;2023-05-07T10:19:19;21.50;66.60
24402;DHT22;12539;48.808;11.292;2023-05-07T10:21:54;21.40;66.70
24402;DHT22;12539;48.808;11.292;2023-05-07T10:24:25;21.50;65.30
24402;DHT22;12539;48.808;11.292;2023-05-07T10:26:52;21.50;65.40
24402;DHT22;12539;48.808;11.292;2023-05-07T10:32:36;21.60;63.00
24402;DHT22;12539;48.808;11.292;2023-05-07T10:35:26;21.70;61.50
24402;DHT22;12539;48.808;11.292;2023-05-07T10:37:52;21.80;62.20
24402;DHT22;12539;48.808;11.292;2023-05-07T10:40:21;21.80;61.30
24402;DHT22;12539;48.808;11.292;2023-05-07T10:43:00;21.80;60.80
24402;DHT22;12539;48.808;11.292;2023-05-07T10:45:27;21.70;60.90
24402;DHT22;12539;48.808;11.292;2023-05-07T10:48:06;21.60;60.50
24402;DHT22;12539;48.808;11.292;2023-05-07T10:50:32;21.60;59.70
24402;DHT22;12539;48.808;11.292;2023-05-07T10:55:49;21.40;62.40
24402;DHT22;12539;48.808;11.292;2023-05-07T10:58:26;21.30;63.10
24402;DHT22;12539;48.808;11.292;2023-05-07T11:00:57;21.20;63.60
24402;DHT22;12539;48.808;11.292;2023-05-07T11:03:23;21.20;63.70
24402;DHT22;12539;48.808;11.292;2023-05-07T11:06:09;21.30;63.70
24402;DHT22;12539;48.808;11.292;2023-05-07T11:08:57;21.30;63.90
24402;DHT22;12539;48.808;11.292;2023-05-07T11:11:51;21.40;64.00
24402;DHT22;12539;48.808;11.292;2023-05-07T11:14:43;21.50;63.60
24402;DHT22;12539;48.808;11.292;2023-05-07T11:17:10;21.50;62.90
24402;DHT22;12539;48.808;11.292;2023-05-07T11:19:53;21.50;62.90
24402;DHT22;12539;48.808;11.292;2023-05-07T11:25:05;21.60;63.70
24402;DHT22;12539;48.808;11.292;2023-05-07T11:27:32;21.60;63.30
24402;DHT22;12539;48.808;11.292;2023-05-07T11:29:58;21.60;62.30
24402;DHT22;12539;48.808;11.292;2023-05-07T11:32:24;21.70;61.60
24402;DHT22;12539;48.808;11.292;2023-05-07T11:35:00;21.70;62.00
24402;DHT22;12539;48.808;11.292;2023-05-07T11:37:27;21.70;62.00
24402;DHT22;12539;48.808;11.292;2023-05-07T11:40:07;21.80;62.60
24402;DHT22;12539;48.808;11.292;2023-05-07T11:42:39;21.90;61.70
24402;DHT22;12539;48.808;11.292;2023-05-07T11:45:10;22.00;61.00
24402;DHT22;12539;48.808;11.292;2023-05-07T11:47:36;22.00;60.50
24402;DHT22;12539;48.808;11.292;2023-05-07T11:50:07;22.10;60.70
24402;DHT22;12539;48.808;11.292;2023-05-07T11:52:33;22.20;61.00
24402;DHT22;12539;48.808;11.292;2023-05-07T11:55:00;22.10;60.50
24402;DHT22;12539;48.808;11.292;2023-05-07T11:57:27;22.20;61.10
24402;DHT22;12539;48.808;11.292;2023-05-07T11:59:57;22.20;60.90
24402;DHT22;12539;48.808;11.292;2023-05-07T12:02:24;22.20;60.80
24402;DHT22;12539;48.808;11.292;2023-05-07T12:04:54;22.20;60.90
24402;DHT22;12539;48.808;11.292;2023-05-07T12:07:20;22.20;60.80
24402;DHT22;12539;48.808;11.292;2023-05-07T12:09:47;22.20;61.60
24402;DHT22;12539;48.808;11.292;2023-05-07T12:12:13;22.30;59.90
24402;DHT22;12539;48.808;11.292;2023-05-07T12:14:45;22.20;58.90
24402;DHT22;12539;48.808;11.292;2023-05-07T12:17:12;22.20;59.60
24402;DHT22;12539;48.808;11.292;2023-05-07T12:19:39;22.20;59.80
24402;DHT22;12539;48.808;11.292;2023-05-07T12:22:07;22.20;59.70
24402;DHT22;12539;48.808;11.292;2023-05-07T12:24:47;22.30;60.10
24402;DHT22;12539;48.808;11.292;2023-05-07T12:27:14;22.30;59.60
24402;DHT22;12539;48.808;11.292;2023-05-07T12:29:43;22.30;60.00
24402;DHT22;12539;48.808;11.292;2023-05-07T12:32:19;22.30;59.20
24402;DHT22;12539;48.808;11.292;2023-05-07T12:34:46;22.30;59.70
24402;DHT22;12539;48.808;11.292;2023-05-07T12:37:13;22.40;59.50
24402;DHT22;12539;48.808;11.292;2023-05-07T12:39:44;22.40;59.20
24402;DHT22;12539;48.808;11.292;2023-05-07T12:42:23;22.50;59.30
24402;DHT22;12539;48.808;11.292;2023-05-07T12:44:51;22.50;59.50
24402;DHT22;12539;48.808;11.292;2023-05-07T12:47:17;22.50;59.40
24402;DHT22;12539;48.808;11.292;2023-05-07T12:49:43;22.60;58.80
24402;DHT22;12539;48.808;11.292;2023-05-07T12:52:11;22.60;58.30
24402;DHT22;12539;48.808;11.292;2023-05-07T12:54:38;22.60;58.20
24402;DHT22;12539;48.808;11.292;2023-05-07T12:57:10;22.70;58.10
24402;DHT22;12539;48.808;11.292;2023-05-07T12:59:40;22.70;57.80
24402;DHT22;12539;48.808;11.292;2023-05-07T13:02:06;22.80;57.80
24402;DHT22;12539;48.808;11.292;2023-05-07T13:04:32;22.80;56.30
24402;DHT22;12539;48.808;11.292;2023-05-07T13:06:59;22.70;56.60
24402;DHT22;12539;48.808;11.292;2023-05-07T13:09:25;22.80;56.70
24402;DHT22;12539;48.808;11.292;2023-05-07T13:11:50;22.90;57.00
24402;DHT22;12539;48.808;11.292;2023-05-07T13:14:16;23.00;56.90
24402;DHT22;12539;48.808;11.292;2023-05-07T13:16:42;23.10;56.40
24402;DHT22;12539;48.808;11.292;2023-05-07T13:19:07;23.20;56.00
24402;DHT22;12539;48.808;11.292;2023-05-07T13:21:33;23.20;55.80
24402;DHT22;12539;48.808;11.292;2023-05-07T13:23:59;23.30;56.00
24402;DHT22;12539;48.808;11.292;2023-05-07T13:26:25;23.30;54.70
24402;DHT22;12539;48.808;11.292;2023-05-07T13:28:53;23.20;54.80
24402;DHT22;12539;48.808;11.292;2023-05-07T13:31:19;23.20;54.10
24402;DHT22;12539;48.808;11.292;2023-05-07T13:33:46;23.10;54.50
24402;DHT22;12539;48.808;11.292;2023-05-07T13:36:14;23.10;54.30
24402;DHT22;12539;48.808;11.292;2023-05-07T13:38:40;23.10;54.00
24402;DHT22;12539;48.808;11.292;2023-05-07T13:41:06;23.10;53.20
24402;DHT22;12539;48.808;11.292;2023-05-07T13:43:31;23.10;53.70
24402;DHT22;12539;48.808;11.292;2023-05-07T13:45:59;23.10;53.50
24402;DHT22;12539;48.808;11.292;2023-05-07T13:48:24;23.10;54.20
24402;DHT22;12539;48.808;11.292;2023-05-07T13:50:50;23.10;53.20
24402;DHT22;12539;48.808;11.292;2023-05-07T13:53:16;23.00;53.60
24402;DHT22;12539;48.808;11.292;2023-05-07T13:55:44;22.90;53.80
24402;DHT22;12539;48.808;11.292;2023-05-07T13:58:10;23.00;54.70
24402;DHT22;12539;48.808;11.292;2023-05-07T14:00:37;23.00;55.20
24402;DHT22;12539;48.808;11.292;2023-05-07T14:03:04;23.10;55.20
24402;DHT22;12539;48.808;11.292;2023-05-07T14:05:30;23.00;54.50
24402;DHT22;12539;48.808;11.292;2023-05-07T14:07:57;23.10;54.90
24402;DHT22;12539;48.808;11.292;2023-05-07T14:10:23;23.20;55.30
24402;DHT22;12539;48.808;11.292;2023-05-07T14:12:49;23.30;54.70
24402;DHT22;12539;48.808;11.292;2023-05-07T14:15:15;23.30;54.10
24402;DHT22;12539;48.808;11.292;2023-05-07T14:17:42;23.20;54.00
24402;DHT22;12539;48.808;11.292;2023-05-07T14:20:08;23.20;54.40
24402;DHT22;12539;48.808;11.292;2023-05-07T14:22:34;23.20;54.90
24402;DHT22;12539;48.808;11.292;2023-05-07T14:25:00;23.20;54.80
24402;DHT22;12539;48.808;11.292;2023-05-07T14:27:25;23.30;54.20
24402;DHT22;12539;48.808;11.292;2023-05-07T14:29:51;23.30;53.80
24402;DHT22;12539;48.808;11.292;2023-05-07T14:32:20;23.30;53.40
24402;DHT22;12539;48.808;11.292;2023-05-07T14:34:46;23.20;53.20
24402;DHT22;12539;48.808;11.292;2023-05-07T14:37:12;23.20;52.90
24402;DHT22;12539;48.808;11.292;2023-05-07T14:39:38;23.20;53.30
24402;DHT22;12539;48.808;11.292;2023-05-07T14:42:04;23.20;53.20
24402;DHT22;12539;48.808;11.292;2023-05-07T14:44:29;23.20;53.30
24402;DHT22;12539;48.808;11.292;2023-05-07T14:46:56;23.30;53.70
24402;DHT22;12539;48.808;11.292;2023-05-07T14:49:22;23.40;53.70
24402;DHT22;12539;48.808;11.292;2023-05-07T14:51:48;23.40;53.20
24402;DHT22;12539;48.808;11.292;2023-05-07T14:54:14;23.50;52.60
24402;DHT22;12539;48.808;11.292;2023-05-07T14:56:40;23.50;52.50
24402;DHT22;12539;48.808;11.292;2023-05-07T14:59:06;23.60;52.80
24402;DHT22;12539;48.808;11.292;2023-05-07T15:01:34;23.50;52.70
24402;DHT22;12539;48.808;11.292;2023-05-07T15:04:00;23.60;53.30
24402;DHT22;12539;48.808;11.292;2023-05-07T15:06:26;23.60;53.40
24402;DHT22;12539;48.808;11.292;2023-05-07T15:08:52;23.70;53.50
24402;DHT22;12539;48.808;11.292;2023-05-07T15:11:17;23.70;53.30
24402;DHT22;12539;48.808;11.292;2023-05-07T15:13:43;23.80;53.60
24402;DHT22;12539;48.808;11.292;2023-05-07T15:16:09;23.80;53.30
24402;DHT22;12539;48.808;11.292;2023-05-07T15:18:35;23.70;52.60
24402;DHT22;12539;48.808;11.292;2023-05-07T15:21:00;23.70;52.80
24402;DHT22;12539;48.808;11.292;2023-05-07T15:23:26;23.70;53.20